Time;durP1;ratioP1;P1;durP2;ratioP2;P2;SDS_P1;SDS_P2;PMS_P1;PMS_P2;Temp;Humidity;BMP_temperature;BMP_pressure;BME280_temperature;BME280_humidity;BME280_pressure;Samples;Min_cycle;Max_cycle;Signal;HPM_P1;HPM_P2
2024/01/14 00:01:47;;;;;;;129.57;70.05;;;5.70;84.50;;;;;;4971102;28;20089;-81
2024/01/14 00:04:12;;;;;;;119.70;65.35;;;5.60;84.50;;;;;;4986745;28;20041;-80
2024/01/14 00:06:38;;;;;;;116.97;63.25;;;5.60;84.80;;;;;;4974804;28;20118;-81
2024/01/14 00:09:04;;;;;;;121.85;66.00;;;5.50;84.90;;;;;;4974057;28;20054;-81
2024/01/14 00:11:31;;;;;;;123.47;68.25;;;5.50;85.10;;;;;;4974361;28;20038;-81
2024/01/14 00:13:56;;;;;;;105.60;59.97;;;5.50;85.10;;;;;;4974874;28;20465;-81
2024/01/14 00:16:22;;;;;;;117.53;64.15;;;5.50;85.00;;;;;;4974213;28;20038;-81
2024/01/14 00:18:48;;;;;;;120.20;65.70;;;5.40;85.50;;;;;;4974602;28;20034;-81
2024/01/14 00:21:13;;;;;;;151.27;80.82;;;5.40;85.10;;;;;;4974232;28;20484;-81
2024/01/14 00:23:39;;;;;;;134.02;76.32;;;5.40;85.00;;;;;;4973794;28;20405;-81
2024/01/14 00:26:05;;;;;;;121.40;67.63;;;5.30;84.80;;;;;;4973345;28;20019;-81
2024/01/14 00:28:30;;;;;;;128.32;73.10;;;5.20;84.80;;;;;;4974592;28;20405;-80
2024/01/14 00:30:56;;;;;;;112.28;64.47;;;5.10;85.00;;;;;;4959092;28;20082;-81
2024/01/14 00:33:23;;;;;;;128.07;68.10;;;5.00;85.50;;;;;;4974044;28;20097;-81
2024/01/14 00:35:49;;;;;;;129.95;70.55;;;5.00;85.50;;;;;;4980680;28;20030;-81
2024/01/14 00:38:15;;;;;;;143.20;75.88;;;5.00;85.40;;;;;;4975138;28;20089;-81
2024/01/14 00:40:41;;;;;;;121.25;64.30;;;5.00;85.50;;;;;;4975843;28;20121;-81
2024/01/14 00:43:07;;;;;;;133.02;69.03;;;5.00;85.40;;;;;;4959200;28;20034;-78
2024/01/14 00:45:32;;;;;;;128.00;70.13;;;5.00;85.60;;;;;;4984307;28;20106;-78
2024/01/14 00:47:58;;;;;;;123.57;67.28;;;5.10;85.70;;;;;;4973695;28;20066;-77
2024/01/14 00:50:24;;;;;;;126.00;69.85;;;5.10;85.60;;;;;;4973500;28;20023;-78
2024/01/14 00:52:49;;;;;;;131.30;73.47;;;5.10;85.60;;;;;;4974282;28;20030;-78
2024/01/14 00:55:15;;;;;;;135.73;71.82;;;5.20;85.60;;;;;;4974454;28;20037;-78
2024/01/14 00:57:41;;;;;;;126.13;68.55;;;5.20;85.40;;;;;;4977127;28;20030;-77
2024/01/14 01:00:09;;;;;;;128.20;69.03;;;5.20;85.30;;;;;;4989210;28;20034;-78
2024/01/14 01:02:35;;;;;;;131.93;70.20;;;5.20;85.20;;;;;;4974989;28;20034;-78
2024/01/14 01:05:01;;;;;;;129.02;67.93;;;5.20;85.00;;;;;;4973633;28;20038;-77
2024/01/14 01:07:27;;;;;;;126.45;66.05;;;5.20;84.90;;;;;;4973891;28;20045;-78
2024/01/14 01:09:53;;;;;;;142.48;70.20;;;5.20;84.90;;;;;;4972470;28;20381;-78
2024/01/14 01:12:18;;;;;;;122.90;66.03;;;5.20;85.10;;;;;;4980921;28;20655;-78
2024/01/14 01:14:46;;;;;;;131.43;69.85;;;5.20;85.30;;;;;;4973637;28;20035;-78
2024/01/14 01:17:11;;;;;;;131.85;69.50;;;5.20;85.20;;;;;;4972044;28;20035;-78
2024/01/14 01:19:37;;;;;;;128.93;68.18;;;5.20;85.10;;;;;;4975636;28;20027;-78
2024/01/14 01:22:03;;;;;;;132.02;70.00;;;5.20;84.90;;;;;;4977234;28;20069;-78
2024/01/14 01:24:29;;;;;;;126.30;69.28;;;5.20;84.90;;;;;;4973177;28;20031;-77
2024/01/14 01:26:54;;;;;;;131.40;67.90;;;5.20;84.90;;;;;;4976205;28;20050;-78
2024/01/14 01:29:20;;;;;;;138.65;75.13;;;5.20;84.90;;;;;;4973394;28;20061;-79
2024/01/14 01:31:46;;;;;;;133.50;71.93;;;5.30;84.70;;;;;;4976565;28;20461;-78
2024/01/14 01:34:11;;;;;;;144.32;72.10;;;5.20;84.60;;;;;;4975922;28;20461;-78
2024/01/14 01:36:37;;;;;;;141.07;72.10;;;5.20;84.50;;;;;;4973414;28;20035;-78
2024/01/14 01:39:03;;;;;;;152.35;75.60;;;5.20;84.70;;;;;;4973536;28;20070;-78
2024/01/14 01:41:28;;;;;;;136.73;69.97;;;5.20;84.60;;;;;;4976832;28;20085;-78
2024/01/14 01:43:54;;;;;;;143.38;75.68;;;5.10;84.50;;;;;;4983728;28;20034;-77
2024/01/14 01:46:20;;;;;;;140.82;72.70;;;5.10;84.80;;;;;;4977392;28;20037;-78
2024/01/14 01:48:46;;;;;;;145.30;70.53;;;5.10;84.90;;;;;;4961116;28;20027;-78
2024/01/14 01:51:13;;;;;;;132.25;65.40;;;5.10;85.10;;;;;;4977283;28;20023;-78
2024/01/14 01:53:40;;;;;;;131.60;68.45;;;5.10;84.90;;;;;;4980013;28;20027;-78
2024/01/14 01:56:06;;;;;;;134.05;66.75;;;5.10;84.90;;;;;;4984232;28;20070;-79
2024/01/14 01:58:32;;;;;;;126.10;60.13;;;5.10;85.00;;;;;;4976703;28;20515;-78
2024/01/14 02:00:57;;;;;;;119.18;60.22;;;5.00;85.00;;;;;;4977456;28;20061;-78
2024/01/14 02:03:24;;;;;;;118.47;62.08;;;5.00;85.00;;;;;;4982507;28;20035;-78
2024/01/14 02:05:54;;;;;;;120.60;66.63;;;4.90;85.10;;;;;;4982938;28;20042;-78
2024/01/14 02:08:20;;;;;;;126.38;61.90;;;4.90;85.30;;;;;;4977326;28;20432;-79
2024/01/14 02:10:46;;;;;;;127.10;63.85;;;4.90;85.30;;;;;;4970717;28;20054;-78
2024/01/14 02:13:12;;;;;;;122.55;65.78;;;4.90;85.50;;;;;;4976592;28;20058;-78
2024/01/14 02:15:37;;;;;;;126.20;63.83;;;5.00;85.60;;;;;;4977261;28;20461;-79
2024/01/14 02:18:03;;;;;;;128.57;64.03;;;5.00;85.50;;;;;;4959030;28;20034;-78
2024/01/14 02:20:29;;;;;;;121.68;63.05;;;5.10;85.30;;;;;;4959914;28;20031;-79
2024/01/14 02:22:56;;;;;;;128.75;66.55;;;5.10;85.00;;;;;;4982913;28;20034;-78
2024/01/14 02:25:22;;;;;;;124.43;61.83;;;5.10;85.00;;;;;;4976545;28;20039;-79
2024/01/14 02:27:49;;;;;;;127.32;65.10;;;5.10;85.10;;;;;;4975870;28;20027;-79
2024/01/14 02:30:15;;;;;;;117.07;63.15;;;5.10;85.00;;;;;;4977138;28;20097;-79
2024/01/14 02:32:40;;;;;;;117.18;61.72;;;5.10;85.00;;;;;;4982066;28;20023;-78
2024/01/14 02:35:06;;;;;;;124.68;63.67;;;5.10;84.80;;;;;;4983981;28;20042;-79
2024/01/14 02:37:37;;;;;;;119.07;62.25;;;5.10;84.80;;;;;;4984268;28;20031;-79
2024/01/14 02:40:03;;;;;;;132.25;65.57;;;5.10;84.70;;;;;;4957898;28;20034;-79
2024/01/14 02:42:29;;;;;;;122.30;61.13;;;5.00;84.80;;;;;;4981118;28;20035;-79
2024/01/14 02:44:55;;;;;;;118.00;62.72;;;5.00;84.70;;;;;;4975960;28;20093;-79
2024/01/14 02:47:21;;;;;;;144.32;74.10;;;5.00;85.00;;;;;;4974460;28;20035;-79
2024/01/14 02:49:46;;;;;;;129.80;67.38;;;4.90;85.00;;;;;;4972570;28;20035;-80
2024/01/14 02:52:12;;;;;;;118.07;62.08;;;4.80;85.60;;;;;;4980961;28;20422;-79
2024/01/14 02:54:38;;;;;;;114.82;62.03;;;4.70;85.50;;;;;;4974049;28;20508;-78
2024/01/14 02:57:03;;;;;;;124.88;69.65;;;4.60;85.80;;;;;;4961759;28;20046;-80
2024/01/14 02:59:32;;;;;;;115.28;63.13;;;4.50;86.30;;;;;;4964545;28;20031;-78
2024/01/14 03:01:58;;;;;;;107.88;59.58;;;4.50;86.20;;;;;;4976296;28;20037;-78
2024/01/14 03:04:24;;;;;;;112.35;62.50;;;4.40;86.50;;;;;;4975805;28;20039;-79
2024/01/14 03:06:49;;;;;;;111.65;61.85;;;4.40;86.50;;;;;;4975651;28;20023;-79
2024/01/14 03:09:15;;;;;;;113.65;63.20;;;4.30;86.70;;;;;;4975100;28;20047;-79
2024/01/14 03:11:40;;;;;;;121.63;68.60;;;4.10;87.30;;;;;;4979227;28;20030;-79
2024/01/14 03:14:06;;;;;;;90.18;53.78;;;4.00;87.50;;;;;;4979096;28;20049;-79
2024/01/14 03:16:32;;;;;;;101.88;55.53;;;4.00;87.80;;;;;;4964778;28;20110;-79
2024/01/14 03:18:57;;;;;;;104.70;59.47;;;4.00;87.70;;;;;;4974894;28;20465;-78
2024/01/14 03:21:23;;;;;;;93.53;53.67;;;4.00;88.00;;;;;;4982462;28;20376;-78
2024/01/14 03:23:49;;;;;;;101.65;56.70;;;3.90;88.20;;;;;;4975496;28;20555;-78
2024/01/14 03:26:14;;;;;;;90.40;53.45;;;3.90;88.30;;;;;;4974831;28;20023;-78
2024/01/14 03:28:40;;;;;;;84.55;50.90;;;3.80;88.60;;;;;;4986318;28;20033;-78
2024/01/14 03:31:07;;;;;;;96.78;56.35;;;3.80;88.40;;;;;;4976241;28;20038;-78
2024/01/14 03:33:33;;;;;;;93.05;54.40;;;3.80;88.60;;;;;;4976031;28;20031;-79
2024/01/14 03:36:02;;;;;;;98.95;55.67;;;3.80;88.80;;;;;;4976120;28;20030;-78
2024/01/14 03:38:28;;;;;;;100.45;53.97;;;3.70;88.90;;;;;;4958415;28;20170;-78
2024/01/14 03:40:54;;;;;;;84.30;48.58;;;3.60;89.10;;;;;;4974335;28;20122;-79
2024/01/14 03:43:19;;;;;;;80.00;48.00;;;3.60;88.80;;;;;;4974538;28;20038;-79
2024/01/14 03:45:45;;;;;;;115.85;66.10;;;3.70;88.80;;;;;;4975731;28;20034;-79
2024/01/14 03:48:11;;;;;;;73.40;44.35;;;3.60;89.00;;;;;;4978434;28;20018;-79
2024/01/14 03:50:36;;;;;;;83.20;47.42;;;3.60;89.20;;;;;;4961715;28;20077;-79
2024/01/14 03:53:02;;;;;;;80.18;46.38;;;3.60;89.10;;;;;;4970919;28;20377;-78
2024/01/14 03:55:28;;;;;;;82.28;49.30;;;3.60;89.00;;;;;;4970594;28;20035;-78
2024/01/14 03:57:54;;;;;;;94.00;53.55;;;3.60;89.00;;;;;;4962038;28;20026;-78
2024/01/14 04:00:19;;;;;;;70.68;43.67;;;3.60;89.30;;;;;;4974211;28;20031;-79
2024/01/14 04:02:45;;;;;;;75.20;43.17;;;3.50;89.30;;;;;;4976117;28;20027;-79
2024/01/14 04:05:11;;;;;;;85.03;47.40;;;3.50;89.30;;;;;;4983519;28;20362;-79
2024/01/14 04:07:36;;;;;;;74.63;45.50;;;3.50;89.40;;;;;;4974448;28;20038;-78
2024/01/14 04:10:02;;;;;;;95.53;54.45;;;3.50;89.40;;;;;;4974048;28;20031;-79
2024/01/14 04:12:28;;;;;;;58.55;36.60;;;3.50;89.70;;;;;;4975356;28;20041;-78
2024/01/14 04:14:54;;;;;;;71.63;42.78;;;3.40;90.10;;;;;;4975926;28;20054;-79
2024/01/14 04:17:19;;;;;;;68.63;41.90;;;3.40;90.00;;;;;;4974792;28;20069;-79
2024/01/14 04:19:45;;;;;;;70.93;40.92;;;3.40;89.90;;;;;;4974288;28;20046;-79
2024/01/14 04:22:11;;;;;;;70.78;41.67;;;3.40;90.00;;;;;;4982023;28;20038;-79
2024/01/14 04:24:36;;;;;;;79.53;46.05;;;3.40;90.10;;;;;;4965551;28;20397;-79
2024/01/14 04:27:02;;;;;;;74.95;44.20;;;3.40;90.00;;;;;;4977547;28;20073;-79
2024/01/14 04:29:28;;;;;;;107.95;60.58;;;3.40;90.00;;;;;;4973970;28;20031;-78
2024/01/14 04:31:53;;;;;;;69.05;42.13;;;3.40;90.10;;;;;;4981381;28;20427;-79
2024/01/14 04:34:19;;;;;;;72.68;43.30;;;3.40;90.00;;;;;;4959826;28;20043;-79
2024/01/14 04:36:44;;;;;;;69.88;41.03;;;3.40;90.00;;;;;;4973581;28;20035;-79
2024/01/14 04:39:10;;;;;;;74.68;43.65;;;3.40;89.90;;;;;;4974117;28;20046;-79
2024/01/14 04:41:36;;;;;;;67.80;41.05;;;3.40;89.80;;;;;;4961086;28;20101;-79
2024/01/14 04:44:02;;;;;;;75.55;40.65;;;3.40;89.70;;;;;;4979782;28;20073;-78
2024/01/14 04:46:28;;;;;;;70.18;44.15;;;3.40;89.70;;;;;;4973710;28;20023;-78
2024/01/14 04:48:54;;;;;;;73.20;43.15;;;3.40;89.80;;;;;;4980628;28;20038;-79
2024/01/14 04:51:20;;;;;;;81.45;50.20;;;3.40;89.90;;;;;;4973463;28;20058;-78
2024/01/14 04:53:45;;;;;;;78.82;45.15;;;3.30;90.10;;;;;;4970674;28;20035;-78
2024/01/14 04:56:11;;;;;;;67.70;41.78;;;3.30;90.10;;;;;;4960962;28;20087;-79
2024/01/14 04:58:38;;;;;;;71.85;42.80;;;3.30;90.10;;;;;;4970087;28;20106;-78
2024/01/14 05:01:03;;;;;;;69.68;41.22;;;3.30;90.10;;;;;;4965931;28;20035;-79
2024/01/14 05:03:29;;;;;;;67.75;39.22;;;3.30;90.10;;;;;;4974504;28;20042;-79
2024/01/14 05:05:55;;;;;;;70.47;39.55;;;3.30;90.10;;;;;;4975845;28;20062;-79
2024/01/14 05:08:21;;;;;;;73.18;41.33;;;3.30;90.20;;;;;;4978766;28;20417;-79
2024/01/14 05:10:46;;;;;;;72.28;44.25;;;3.30;90.20;;;;;;4974440;28;20434;-79
2024/01/14 05:13:12;;;;;;;69.22;43.45;;;3.30;90.20;;;;;;4955851;28;20113;-79
2024/01/14 05:15:38;;;;;;;81.65;47.85;;;3.40;90.20;;;;;;4965051;28;20058;-79
2024/01/14 05:18:04;;;;;;;64.40;41.15;;;3.30;90.10;;;;;;4977447;28;20077;-79
2024/01/14 05:20:30;;;;;;;63.65;39.90;;;3.40;90.00;;;;;;4959513;28;20054;-79
2024/01/14 05:22:55;;;;;;;66.78;42.15;;;3.30;90.10;;;;;;4975446;28;20393;-79
2024/01/14 05:25:21;;;;;;;64.13;38.22;;;3.40;90.10;;;;;;4978647;28;20511;-80
2024/01/14 05:27:47;;;;;;;66.13;40.33;;;3.40;90.00;;;;;;4980138;28;20106;-78
2024/01/14 05:30:13;;;;;;;64.95;38.83;;;3.40;90.00;;;;;;4960319;28;20031;-78
2024/01/14 05:32:39;;;;;;;95.30;55.42;;;3.40;90.00;;;;;;4976741;28;20026;-79
2024/01/14 05:35:05;;;;;;;70.03;40.25;;;3.30;90.00;;;;;;4982818;28;20113;-79
2024/01/14 05:37:31;;;;;;;61.85;36.47;;;3.30;90.00;;;;;;4981081;28;20050;-79
2024/01/14 05:39:57;;;;;;;63.17;37.88;;;3.40;90.10;;;;;;4969083;28;20078;-79
2024/01/14 05:42:23;;;;;;;60.53;38.53;;;3.40;90.10;;;;;;4976748;28;20543;-79
2024/01/14 05:44:49;;;;;;;60.38;36.13;;;3.50;90.00;;;;;;4983295;28;20035;-78
2024/01/14 05:47:14;;;;;;;56.10;34.05;;;3.50;89.90;;;;;;4976343;28;20039;-78
2024/01/14 05:49:40;;;;;;;50.72;28.92;;;3.50;89.70;;;;;;4976982;28;20445;-78
2024/01/14 05:52:06;;;;;;;64.55;38.38;;;3.40;89.60;;;;;;4975880;28;20034;-78
2024/01/14 05:54:31;;;;;;;72.10;39.65;;;3.40;89.60;;;;;;4976336;28;20385;-78
2024/01/14 05:56:57;;;;;;;53.65;35.75;;;3.20;89.80;;;;;;4979838;28;20393;-78
2024/01/14 05:59:23;;;;;;;55.72;34.22;;;3.20;89.80;;;;;;4976784;28;20113;-78
2024/01/14 06:01:49;;;;;;;57.78;35.00;;;3.20;90.00;;;;;;4977156;28;20113;-78
2024/01/14 06:04:15;;;;;;;55.35;33.60;;;3.20;90.10;;;;;;4970210;28;20027;-78
2024/01/14 06:06:40;;;;;;;58.78;34.40;;;3.20;90.10;;;;;;4976065;28;20041;-77
2024/01/14 06:09:06;;;;;;;58.70;37.70;;;3.20;90.10;;;;;;4976439;28;20042;-77
2024/01/14 06:11:32;;;;;;;51.15;31.42;;;3.20;90.10;;;;;;4976729;28;20031;-78
2024/01/14 06:13:57;;;;;;;72.97;43.92;;;3.20;90.20;;;;;;4980777;28;20038;-78
2024/01/14 06:16:25;;;;;;;82.10;49.33;;;3.10;90.20;;;;;;4977187;28;20027;-78
2024/01/14 06:18:50;;;;;;;76.00;46.55;;;2.90;90.60;;;;;;4974441;28;20118;-78
2024/01/14 06:21:16;;;;;;;46.30;29.13;;;2.70;90.90;;;;;;4977240;28;20186;-78
2024/01/14 06:23:42;;;;;;;48.65;32.00;;;2.80;90.90;;;;;;4975999;28;20039;-78
2024/01/14 06:26:14;;;;;;;67.38;40.72;;;2.80;90.70;;;;;;4974798;28;20042;-77
2024/01/14 06:28:39;;;;;;;50.15;32.05;;;2.80;91.10;;;;;;4975371;28;20158;-77
2024/01/14 06:31:07;;;;;;;55.65;32.47;;;2.90;90.80;;;;;;4978305;28;20436;-78
2024/01/14 06:33:33;;;;;;;78.93;48.38;;;2.90;90.70;;;;;;4982766;28;20393;-77
2024/01/14 06:35:58;;;;;;;45.05;26.48;;;2.90;90.60;;;;;;4976012;28;20027;-79
2024/01/14 06:38:24;;;;;;;64.00;38.53;;;2.90;90.70;;;;;;4985313;28;20772;-78
2024/01/14 06:40:50;;;;;;;49.90;30.42;;;2.90;90.60;;;;;;4973851;28;20425;-80
2024/01/14 06:43:16;;;;;;;51.38;29.33;;;2.90;90.50;;;;;;4978511;28;20031;-79
2024/01/14 06:45:42;;;;;;;56.25;30.90;;;3.00;90.50;;;;;;4975307;28;20022;-79
2024/01/14 06:48:08;;;;;;;46.35;28.30;;;3.00;90.50;;;;;;4960840;28;20483;-79
2024/01/14 06:50:34;;;;;;;48.25;30.75;;;3.10;90.40;;;;;;4976546;28;20535;-79
2024/01/14 06:52:59;;;;;;;46.60;27.30;;;3.20;90.40;;;;;;4975133;28;20054;-79
2024/01/14 06:55:25;;;;;;;51.70;29.33;;;3.20;90.20;;;;;;4974688;28;20042;-82
2024/01/14 06:57:50;;;;;;;51.50;30.05;;;3.30;90.30;;;;;;4958953;28;20503;-83
2024/01/14 07:00:16;;;;;;;51.08;29.75;;;3.30;90.20;;;;;;4977083;28;20046;-82
2024/01/14 07:02:42;;;;;;;55.25;35.17;;;3.40;90.10;;;;;;4976939;28;20041;-82
2024/01/14 07:05:09;;;;;;;45.13;27.60;;;3.40;90.20;;;;;;4975435;28;20039;-83
2024/01/14 07:07:35;;;;;;;46.08;28.30;;;3.40;89.90;;;;;;4971397;28;20131;-84
2024/01/14 07:10:01;;;;;;;46.95;29.00;;;3.40;90.00;;;;;;4960322;28;20039;-84
2024/01/14 07:12:27;;;;;;;50.67;30.70;;;3.30;89.80;;;;;;4957376;28;20026;-84
2024/01/14 07:14:53;;;;;;;48.97;29.52;;;3.30;90.00;;;;;;4969615;28;20031;-84
2024/01/14 07:17:19;;;;;;;56.17;34.15;;;3.30;89.90;;;;;;4976207;28;20434;-85
2024/01/14 07:19:44;;;;;;;48.10;31.55;;;3.30;90.30;;;;;;4975252;28;20015;-85
2024/01/14 07:22:10;;;;;;;46.30;28.58;;;3.40;90.00;;;;;;4979551;28;20058;-85
2024/01/14 07:24:36;;;;;;;47.70;28.75;;;3.20;89.80;;;;;;4975032;28;20041;-85
2024/01/14 07:27:02;;;;;;;51.67;31.10;;;3.20;89.80;;;;;;4975480;28;20041;-86
2024/01/14 07:29:28;;;;;;;47.35;29.13;;;3.20;90.00;;;;;;4975636;28;20377;-86
2024/01/14 07:31:54;;;;;;;65.88;40.55;;;3.20;90.00;;;;;;4976342;28;20698;-87
2024/01/14 07:34:19;;;;;;;45.75;27.15;;;3.20;90.30;;;;;;4984869;28;20113;-85
2024/01/14 07:36:45;;;;;;;48.97;29.38;;;3.30;90.30;;;;;;4975650;28;20105;-85
2024/01/14 07:39:12;;;;;;;46.47;28.27;;;3.30;90.40;;;;;;4956125;29;20039;-86
2024/01/14 07:41:39;;;;;;;46.92;26.30;;;3.30;90.10;;;;;;4955386;29;20058;-85
2024/01/14 07:44:05;;;;;;;49.63;32.22;;;3.30;90.10;;;;;;4954045;28;20054;-85
2024/01/14 07:46:31;;;;;;;50.08;31.30;;;3.30;90.00;;;;;;4954743;28;20361;-85
2024/01/14 07:48:57;;;;;;;55.10;31.52;;;3.30;90.00;;;;;;4957755;28;20035;-85
2024/01/14 07:51:23;;;;;;;50.40;32.30;;;3.40;90.00;;;;;;4961521;28;20042;-85
2024/01/14 07:53:48;;;;;;;50.47;31.23;;;3.40;90.00;;;;;;4973502;28;20026;-82
2024/01/14 07:56:14;;;;;;;64.38;39.90;;;3.50;90.10;;;;;;4971462;28;20111;-82
2024/01/14 07:58:40;;;;;;;53.05;31.48;;;3.50;89.90;;;;;;4957482;28;20461;-82
2024/01/14 08:01:08;;;;;;;47.97;30.52;;;3.50;90.00;;;;;;4955228;28;20479;-82
2024/01/14 08:03:35;;;;;;;45.67;27.65;;;3.50;90.00;;;;;;4946898;29;20023;-82
2024/01/14 08:06:01;;;;;;;42.03;27.33;;;3.50;90.00;;;;;;4935117;29;20373;-82
2024/01/14 08:08:27;;;;;;;41.47;26.33;;;3.60;90.10;;;;;;4949628;29;20038;-82
2024/01/14 08:10:53;;;;;;;50.60;31.35;;;3.50;90.00;;;;;;4959795;28;20035;-83
2024/01/14 08:13:20;;;;;;;49.10;29.88;;;3.60;90.10;;;;;;4956200;28;20042;-82
2024/01/14 08:15:45;;;;;;;47.00;30.48;;;3.50;90.00;;;;;;4937992;29;20051;-83
2024/01/14 08:18:11;;;;;;;42.08;26.73;;;3.50;90.10;;;;;;4958961;28;20058;-83
2024/01/14 08:20:37;;;;;;;61.50;38.38;;;3.60;90.00;;;;;;4966523;28;20419;-83
2024/01/14 08:23:02;;;;;;;61.65;38.40;;;3.60;90.00;;;;;;4959026;28;20036;-83
2024/01/14 08:25:28;;;;;;;53.42;31.85;;;3.70;90.00;;;;;;4951894;28;20534;-82
2024/01/14 08:27:55;;;;;;;67.55;41.17;;;3.70;90.00;;;;;;4956252;28;20023;-82
2024/01/14 08:30:21;;;;;;;46.50;29.08;;;3.70;90.00;;;;;;4958445;28;20031;-82
2024/01/14 08:32:46;;;;;;;48.25;30.08;;;3.80;90.20;;;;;;4954976;29;20031;-82
2024/01/14 08:35:12;;;;;;;38.55;24.30;;;3.80;90.00;;;;;;4955379;28;20039;-86
2024/01/14 08:37:38;;;;;;;41.85;27.88;;;3.90;89.90;;;;;;4957902;28;20038;-86
2024/01/14 08:40:04;;;;;;;50.45;32.53;;;3.90;90.00;;;;;;4955732;29;20051;-86
2024/01/14 08:42:31;;;;;;;40.20;26.58;;;4.00;89.80;;;;;;4955060;29;20046;-86
2024/01/14 08:44:57;;;;;;;40.28;25.30;;;4.10;89.80;;;;;;4936865;29;20442;-86
2024/01/14 08:47:22;;;;;;;43.05;28.83;;;4.00;89.10;;;;;;4955550;29;20031;-86
2024/01/14 08:49:48;;;;;;;44.97;27.85;;;4.10;89.60;;;;;;4954789;29;20050;-86
2024/01/14 08:52:14;;;;;;;51.05;32.65;;;4.20;89.60;;;;;;4954687;29;20424;-86
2024/01/14 08:54:39;;;;;;;39.55;26.75;;;4.40;89.50;;;;;;4955485;29;20063;-86
2024/01/14 08:57:07;;;;;;;42.08;25.73;;;4.50;89.10;;;;;;4956618;28;20024;-87
2024/01/14 08:59:33;;;;;;;42.00;26.48;;;4.60;89.60;;;;;;4955502;29;20148;-87
2024/01/14 09:01:59;;;;;;;43.25;28.50;;;4.80;88.90;;;;;;4955266;29;20027;-85
2024/01/14 09:04:24;;;;;;;43.08;27.17;;;5.00;88.50;;;;;;4955271;29;20090;-86
2024/01/14 09:06:50;;;;;;;43.90;28.02;;;5.20;87.90;;;;;;4955204;29;20035;-85
2024/01/14 09:09:16;;;;;;;44.42;27.10;;;5.30;87.40;;;;;;4954619;29;20036;-85
2024/01/14 09:11:45;;;;;;;45.92;25.50;;;5.50;86.90;;;;;;4937423;29;20039;-84
2024/01/14 09:14:11;;;;;;;37.10;23.95;;;5.60;86.50;;;;;;4951819;28;20082;-84
2024/01/14 09:16:36;;;;;;;40.83;25.75;;;5.60;85.80;;;;;;4955212;29;20106;-84
2024/01/14 09:19:02;;;;;;;45.65;27.48;;;5.60;85.70;;;;;;4955125;29;20035;-83
2024/01/14 09:21:28;;;;;;;35.92;23.58;;;5.60;85.80;;;;;;4955365;29;20362;-84
2024/01/14 09:23:53;;;;;;;36.50;22.77;;;5.70;85.30;;;;;;4954998;29;20023;-84
2024/01/14 09:26:19;;;;;;;33.55;22.50;;;5.70;85.40;;;;;;4954981;29;20597;-84
2024/01/14 09:28:45;;;;;;;29.83;20.42;;;5.70;85.30;;;;;;4955226;29;20162;-85
2024/01/14 09:31:12;;;;;;;38.58;23.73;;;5.70;84.80;;;;;;4955185;29;20131;-85
2024/01/14 09:33:38;;;;;;;33.25;19.58;;;5.70;84.60;;;;;;4955019;29;20051;-85
2024/01/14 09:36:08;;;;;;;43.67;29.48;;;5.70;84.70;;;;;;4937890;29;20035;-85
2024/01/14 09:38:35;;;;;;;38.00;24.83;;;5.70;85.00;;;;;;4950516;28;20481;-85
2024/01/14 09:41:17;;;;;;;38.53;24.48;;;5.70;85.30;;;;;;4974553;28;20154;-85
2024/01/14 09:43:48;;;;;;;42.80;25.75;;;5.80;85.70;;;;;;4974105;28;20039;-85
2024/01/14 09:46:14;;;;;;;48.75;29.98;;;5.90;85.50;;;;;;4973081;28;20057;-84
2024/01/14 09:48:40;;;;;;;40.53;26.75;;;6.00;85.30;;;;;;4971645;28;20027;-86
2024/01/14 09:51:08;;;;;;;35.97;23.90;;;6.10;85.00;;;;;;4973931;28;20046;-86
2024/01/14 09:53:36;;;;;;;44.00;29.65;;;6.10;85.00;;;;;;4966751;28;20037;-86
2024/01/14 09:56:04;;;;;;;42.08;27.92;;;6.20;85.20;;;;;;4974053;28;20058;-87
2024/01/14 09:58:30;;;;;;;33.63;22.00;;;6.30;85.20;;;;;;4973834;28;20039;-87
2024/01/14 10:00:57;;;;;;;43.55;29.08;;;6.40;85.20;;;;;;4975124;28;20409;-85
2024/01/14 10:03:24;;;;;;;38.95;23.42;;;6.50;85.00;;;;;;4976304;28;20114;-86
2024/01/14 10:05:50;;;;;;;39.75;26.75;;;6.60;85.00;;;;;;4958696;28;20026;-86
2024/01/14 10:08:16;;;;;;;38.10;25.17;;;6.70;85.00;;;;;;4970394;28;20346;-87
2024/01/14 10:10:52;;;;;;;34.30;22.83;;;6.80;86.20;;;;;;4971228;28;20034;-87
2024/01/14 10:13:20;;;;;;;32.05;22.42;;;6.90;84.50;;;;;;4966976;28;20114;-86
2024/01/14 10:15:47;;;;;;;37.60;22.00;;;7.00;84.00;;;;;;4970676;28;20038;-87
2024/01/14 10:18:13;;;;;;;39.95;25.60;;;7.10;84.40;;;;;;4974045;28;20118;-87
2024/01/14 10:20:38;;;;;;;40.65;24.27;;;7.20;83.70;;;;;;4973685;28;20107;-86
2024/01/14 10:23:05;;;;;;;50.58;30.05;;;7.20;82.80;;;;;;4973209;28;20035;-87
2024/01/14 10:25:30;;;;;;;38.15;24.83;;;7.20;82.40;;;;;;4976318;28;20035;-87
2024/01/14 10:27:56;;;;;;;50.78;34.35;;;7.20;83.40;;;;;;4976837;28;20066;-87
2024/01/14 10:30:23;;;;;;;36.63;24.92;;;7.20;82.60;;;;;;4969520;28;20110;-86
2024/01/14 10:32:50;;;;;;;33.60;22.63;;;7.30;82.90;;;;;;4974616;28;20480;-87
2024/01/14 10:35:17;;;;;;;30.95;21.02;;;7.40;82.90;;;;;;4972946;28;20046;-87
2024/01/14 10:37:43;;;;;;;32.80;22.02;;;7.50;83.20;;;;;;4963933;28;20035;-87
2024/01/14 10:40:09;;;;;;;44.40;30.50;;;7.70;83.10;;;;;;4958690;28;20050;-87
2024/01/14 10:42:38;;;;;;;32.80;21.30;;;7.80;82.20;;;;;;4976156;28;20438;-87
2024/01/14 10:45:07;;;;;;;37.65;24.73;;;8.00;81.70;;;;;;4969442;28;20034;-87
2024/01/14 10:47:34;;;;;;;42.60;28.30;;;8.20;82.70;;;;;;4971779;28;20122;-87
2024/01/14 10:50:00;;;;;;;34.78;22.63;;;8.40;81.40;;;;;;4974065;28;20034;-87
2024/01/14 10:52:31;;;;;;;32.15;20.73;;;8.60;81.00;;;;;;4956617;28;20023;-87
2024/01/14 10:55:02;;;;;;;29.30;21.05;;;8.70;79.50;;;;;;4972981;28;20042;-87
2024/01/14 10:57:37;;;;;;;26.25;18.13;;;8.80;78.30;;;;;;4971550;28;20477;-87
2024/01/14 11:00:09;;;;;;;37.22;25.15;;;8.80;79.00;;;;;;4963405;28;20035;-87
2024/01/14 11:02:37;;;;;;;26.08;18.02;;;8.80;77.70;;;;;;4964525;28;20038;-86
2024/01/14 11:05:04;;;;;;;28.92;19.67;;;8.60;78.20;;;;;;4959617;28;20034;-87
2024/01/14 11:07:33;;;;;;;30.35;20.48;;;8.60;78.40;;;;;;4969646;28;20019;-86
2024/01/14 11:10:04;;;;;;;31.05;21.67;;;8.70;77.70;;;;;;4968097;28;20070;-86
2024/01/14 11:12:36;;;;;;;33.80;20.48;;;8.90;78.60;;;;;;4973084;28;20358;-86
2024/01/14 11:15:32;;;;;;;24.48;15.85;;;8.90;77.50;;;;;;4974519;28;20495;-86
2024/01/14 11:18:03;;;;;;;42.83;24.35;;;9.10;78.40;;;;;;4968998;28;20386;-86
2024/01/14 11:20:32;;;;;;;24.48;16.15;;;9.30;77.00;;;;;;4971658;28;20031;-86
2024/01/14 11:22:58;;;;;;;28.58;18.10;;;9.40;78.50;;;;;;4970653;28;20046;-86
2024/01/14 11:25:32;;;;;;;45.22;29.33;;;9.70;78.70;;;;;;4971567;28;20069;-87
2024/01/14 11:28:00;;;;;;;32.30;21.90;;;9.80;75.10;;;;;;4975090;28;20077;-86
2024/01/14 11:30:47;;;;;;;42.20;25.98;;;9.60;76.10;;;;;;4953232;28;20054;-86
2024/01/14 11:33:38;;;;;;;36.95;24.23;;;9.70;76.30;;;;;;4975427;28;20026;-86
2024/01/14 11:36:05;;;;;;;39.08;23.95;;;9.90;77.10;;;;;;4962260;28;20027;-86
2024/01/14 11:38:45;;;;;;;46.28;29.58;;;10.00;75.40;;;;;;4968715;28;20460;-85
2024/01/14 11:41:35;;;;;;;36.70;22.77;;;10.00;75.10;;;;;;4976059;28;20061;-87
2024/01/14 11:44:08;;;;;;;31.38;21.48;;;10.10;76.10;;;;;;4973642;28;20068;-87
2024/01/14 11:46:54;;;;;;;26.98;19.08;;;10.40;77.80;;;;;;4977006;28;20026;-87
2024/01/14 11:49:22;;;;;;;32.97;22.88;;;10.70;75.80;;;;;;4973552;28;20101;-87
2024/01/14 11:51:57;;;;;;;37.25;25.33;;;10.90;74.40;;;;;;4965897;28;20074;-87
2024/01/14 11:54:23;;;;;;;42.80;28.55;;;11.50;72.60;;;;;;4979221;28;20023;-87
2024/01/14 11:56:49;;;;;;;28.40;20.90;;;11.90;70.30;;;;;;4954440;28;20064;-87
2024/01/14 11:59:16;;;;;;;36.10;25.75;;;12.90;70.30;;;;;;5060352;23;20046;-88
2024/01/14 12:01:42;;;;;;;33.22;23.90;;;13.80;70.30;;;;;;4953568;29;20027;-88
2024/01/14 12:04:10;;;;;;;46.58;29.77;;;14.80;67.80;;;;;;4952630;29;20039;-88
2024/01/14 12:06:40;;;;;;;32.88;24.75;;;15.00;62.10;;;;;;4934766;29;20397;-90
2024/01/14 12:09:08;;;;;;;32.90;22.20;;;15.60;65.00;;;;;;4949642;28;20023;-89
2024/01/14 12:11:34;;;;;;;37.10;24.38;;;16.20;62.40;;;;;;4949697;29;20904;-86
2024/01/14 12:14:01;;;;;;;34.70;23.88;;;16.80;61.10;;;;;;4948792;28;20122;-86
2024/01/14 12:16:26;;;;;;;34.45;22.10;;;17.30;61.10;;;;;;4953676;29;20347;-85
2024/01/14 12:18:52;;;;;;;31.48;22.75;;;17.80;59.60;;;;;;4952708;29;20031;-85
2024/01/14 12:21:19;;;;;;;35.55;25.05;;;18.00;58.40;;;;;;4952948;29;20500;-87
2024/01/14 12:23:45;;;;;;;42.05;30.17;;;18.10;56.40;;;;;;4949910;28;20035;-86
2024/01/14 12:26:12;;;;;;;32.40;24.70;;;17.20;55.10;;;;;;4948971;29;20082;-85
2024/01/14 12:28:38;;;;;;;31.27;23.40;;;17.20;57.90;;;;;;4948808;29;20611;-85
2024/01/14 12:31:05;;;;;;;32.17;23.40;;;17.50;57.70;;;;;;4952674;29;20053;-85